createdAt,value
2022-11-26T00:02:26.490Z,102429.47
2022-11-26T00:04:55.306Z,102435.19
2022-11-26T00:07:26.871Z,102429.88
2022-11-26T00:09:56.356Z,102436.91
2022-11-26T00:12:29.090Z,102433.56
2022-11-26T00:14:56.153Z,102432.31
2022-11-26T00:17:23.942Z,102435.66
2022-11-26T00:19:50.967Z,102440.88
2022-11-26T00:22:29.322Z,102441.78
2022-11-26T00:24:57.226Z,102449.13
2022-11-26T00:27:28.666Z,102456.50
2022-11-26T00:29:56.146Z,102451.97
2022-11-26T00:32:26.881Z,102450.97
2022-11-26T00:34:54.416Z,102457.09
2022-11-26T00:37:22.913Z,102448.88
2022-11-26T00:39:50.992Z,102453.28
2022-11-26T00:42:19.536Z,102453.28
2022-11-26T00:44:46.801Z,102453.22
2022-11-26T00:47:13.881Z,102461.84
2022-11-26T00:49:40.921Z,102461.78
2022-11-26T00:52:50.446Z,102460.81
2022-11-26T00:55:40.888Z,102460.75
2022-11-26T00:58:28.066Z,102461.66
2022-11-26T01:00:59.573Z,102462.47
2022-11-26T01:03:27.070Z,102465.09
2022-11-26T01:05:58.303Z,102464.13
2022-11-26T01:08:30.938Z,102474.63
2022-11-26T01:11:04.228Z,102474.63
2022-11-26T01:13:32.017Z,102471.13
2022-11-26T01:16:01.538Z,102464.13
2022-11-26T01:18:34.873Z,102465.91
2022-11-26T01:21:01.836Z,102470.31
2022-11-26T01:23:28.782Z,102465.91
2022-11-26T01:25:55.889Z,102458.81
2022-11-26T01:28:22.903Z,102454.47
2022-11-26T01:30:50.005Z,102451.78
2022-11-26T01:33:16.997Z,102458.75
2022-11-26T01:35:44.079Z,102450.91
2022-11-26T01:38:15.711Z,102453.38
2022-11-26T01:41:17.073Z,102453.38
2022-11-26T01:43:45.062Z,102457.66
2022-11-26T01:46:26.416Z,102463.66
2022-11-26T01:48:55.139Z,102462.72
2022-11-26T01:51:28.116Z,102464.38
2022-11-26T01:54:00.836Z,102474.69
2022-11-26T01:57:07.264Z,102482.34
2022-11-26T01:59:40.671Z,102479.50
2022-11-26T02:02:08.365Z,102478.50
2022-11-26T02:04:45.069Z,102480.16
2022-11-26T02:07:12.420Z,102480.97
2022-11-26T02:09:40.640Z,102487.03
2022-11-26T02:12:08.012Z,102488.69
2022-11-26T02:14:41.247Z,102492.91
2022-11-26T02:17:44.193Z,102493.66
2022-11-26T02:20:29.415Z,102501.41
2022-11-26T02:23:39.498Z,102503.13
2022-11-26T02:26:27.617Z,102502.91
2022-11-26T02:29:49.100Z,102495.16
2022-11-26T02:32:23.604Z,102508.13
2022-11-26T02:35:25.638Z,102507.28
2022-11-26T02:38:05.408Z,102504.69
2022-11-26T02:40:32.469Z,102498.00
2022-11-26T02:42:59.438Z,102489.34
2022-11-26T02:45:34.191Z,102499.19
2022-11-26T02:48:06.893Z,102495.69
2022-11-26T02:50:42.138Z,102499.91
2022-11-26T02:53:14.040Z,102501.63
2022-11-26T02:55:56.389Z,102511.16
2022-11-26T02:58:23.329Z,102512.81
2022-11-26T03:00:51.061Z,102511.94
2022-11-26T03:03:28.600Z,102517.00
2022-11-26T03:06:02.637Z,102509.91
2022-11-26T03:08:31.262Z,102519.38
2022-11-26T03:10:58.764Z,102517.53
2022-11-26T03:13:27.205Z,102529.66
2022-11-26T03:16:01.234Z,102531.31
2022-11-26T03:18:28.496Z,102533.75
2022-11-26T03:20:55.478Z,102532.78
2022-11-26T03:23:22.688Z,102539.53
2022-11-26T03:25:49.642Z,102547.28
2022-11-26T03:28:16.668Z,102553.31
2022-11-26T03:30:43.606Z,102541.09
2022-11-26T03:33:12.486Z,102542.75
2022-11-26T03:35:47.216Z,102546.19
2022-11-26T03:38:17.576Z,102544.41
2022-11-26T03:40:45.035Z,102553.94
2022-11-26T03:43:12.066Z,102539.97
2022-11-26T03:45:39.096Z,102539.75
2022-11-26T03:48:06.650Z,102538.84
2022-11-26T03:50:33.649Z,102540.63
2022-11-26T03:53:00.836Z,102544.22
2022-11-26T03:55:27.951Z,102547.78
2022-11-26T03:57:57.943Z,102547.72
2022-11-26T04:00:25.104Z,102552.09
2022-11-26T04:02:52.218Z,102547.72
2022-11-26T04:05:19.635Z,102552.09
2022-11-26T04:07:46.716Z,102553.75
2022-11-26T04:10:13.689Z,102556.44
2022-11-26T04:12:40.695Z,102566.03
2022-11-26T04:15:08.573Z,102566.03
2022-11-26T04:17:35.689Z,102573.09
2022-11-26T04:20:03.633Z,102569.47
2022-11-26T04:22:30.623Z,102581.81
2022-11-26T04:24:57.735Z,102583.59
2022-11-26T04:27:24.702Z,102582.78
2022-11-26T04:29:51.669Z,102576.66
2022-11-26T04:32:18.646Z,102581.06
2022-11-26T04:34:45.626Z,102582.63
2022-11-26T04:37:12.657Z,102580.00
2022-11-26T04:39:39.626Z,102582.63
2022-11-26T04:42:06.827Z,102569.59
2022-11-26T04:44:33.932Z,102576.47
2022-11-26T04:47:01.091Z,102580.81
2022-11-26T04:49:28.018Z,102581.69
2022-11-26T04:51:55.190Z,102580.66
2022-11-26T04:54:22.519Z,102580.59
2022-11-26T04:56:50.030Z,102587.50
2022-11-26T04:59:17.026Z,102592.72
2022-11-26T05:01:44.530Z,102587.31
2022-11-26T05:04:11.494Z,102591.66
2022-11-26T05:06:38.947Z,102596.88
2022-11-26T05:09:06.008Z,102596.88
2022-11-26T05:11:32.963Z,102598.34
2022-11-26T05:14:00.337Z,102594.19
2022-11-26T05:16:27.301Z,102599.41
2022-11-26T05:18:54.382Z,102595.91
2022-11-26T05:21:21.337Z,102602.91
2022-11-26T05:23:48.528Z,102598.59
2022-11-26T05:26:15.538Z,102605.50
2022-11-26T05:28:42.798Z,102604.63
2022-11-26T05:31:09.785Z,102595.81
2022-11-26T05:33:36.784Z,102602.69
2022-11-26T05:36:04.591Z,102598.28
2022-11-26T05:38:31.663Z,102601.69
2022-11-26T05:40:58.690Z,102609.34
2022-11-26T05:43:25.679Z,102612.78
2022-11-26T05:45:53.686Z,102613.59
2022-11-26T05:48:20.715Z,102616.19
2022-11-26T05:50:53.047Z,102609.28
2022-11-26T05:53:21.382Z,102615.38
2022-11-26T05:55:48.407Z,102616.19
2022-11-26T05:58:15.421Z,102621.50
2022-11-26T06:00:42.440Z,102616.19
2022-11-26T06:03:09.665Z,102625.00
2022-11-26T06:05:36.812Z,102624.09
2022-11-26T06:08:03.983Z,102631.09
2022-11-26T06:10:31.016Z,102637.22
2022-11-26T06:12:58.115Z,102633.63
2022-11-26T06:15:25.085Z,102640.72
2022-11-26T06:17:52.086Z,102639.81
2022-11-26T06:20:19.319Z,102645.09
2022-11-26T06:22:46.403Z,102638.94
2022-11-26T06:25:14.451Z,102633.78
2022-11-26T06:27:42.069Z,102634.69
2022-11-26T06:30:11.397Z,102642.50
2022-11-26T06:32:38.461Z,102642.50
2022-11-26T06:35:06.184Z,102649.34
2022-11-26T06:37:34.004Z,102643.25
2022-11-26T06:40:01.585Z,102643.25
2022-11-26T06:42:29.690Z,102650.09
2022-11-26T06:45:00.167Z,102644.00
2022-11-26T06:47:27.678Z,102651.81
2022-11-26T06:49:54.674Z,102652.63
2022-11-26T06:52:21.662Z,102653.34
2022-11-26T06:54:50.107Z,102662.06
2022-11-26T06:57:17.207Z,102661.28
2022-11-26T06:59:44.112Z,102664.66
2022-11-26T07:02:11.663Z,102672.41
2022-11-26T07:04:38.893Z,102668.97
2022-11-26T07:07:06.101Z,102666.38
2022-11-26T07:09:33.228Z,102674.13
2022-11-26T07:12:00.214Z,102677.63
2022-11-26T07:14:27.398Z,102674.94
2022-11-26T07:16:54.405Z,102673.28
2022-11-26T07:19:21.447Z,102687.16
2022-11-26T07:21:48.452Z,102687.16
2022-11-26T07:24:16.510Z,102696.94
2022-11-26T07:26:43.736Z,102703.28
2022-11-26T07:29:10.752Z,102699.97
2022-11-26T07:31:37.903Z,102697.38
2022-11-26T07:34:04.887Z,102703.56
2022-11-26T07:36:31.968Z,102700.13
2022-11-26T07:39:01.952Z,102702.00
2022-11-26T07:41:30.335Z,102705.50
2022-11-26T07:43:57.746Z,102698.69
2022-11-26T07:46:26.710Z,102701.44
2022-11-26T07:48:56.482Z,102700.00
2022-11-26T07:51:28.016Z,102705.44
2022-11-26T07:53:58.796Z,102708.31
2022-11-26T07:56:27.105Z,102693.69
2022-11-26T07:58:54.421Z,102701.69
2022-11-26T08:01:27.255Z,102690.59
2022-11-26T08:03:57.594Z,102706.66
2022-11-26T08:06:30.884Z,102703.56
2022-11-26T08:09:03.139Z,102701.34
2022-11-26T08:11:33.722Z,102704.34
2022-11-26T08:14:05.197Z,102704.94
2022-11-26T08:16:33.796Z,102699.22
2022-11-26T08:19:06.477Z,102698.94
2022-11-26T08:21:34.673Z,102703.03
2022-11-26T08:24:03.527Z,102707.16
2022-11-26T08:26:37.225Z,102712.91
2022-11-26T08:29:07.309Z,102713.28
2022-11-26T08:31:37.279Z,102714.56
2022-11-26T08:34:07.298Z,102714.03
2022-11-26T08:36:34.584Z,102722.19
2022-11-26T08:39:01.757Z,102727.78
2022-11-26T08:41:28.906Z,102726.25
2022-11-26T08:44:11.172Z,102726.56
2022-11-26T08:46:41.189Z,102729.47
2022-11-26T08:49:12.428Z,102728.84
2022-11-26T08:51:39.472Z,102731.81
2022-11-26T08:54:06.821Z,102726.81
2022-11-26T08:56:34.682Z,102722.78
2022-11-26T08:59:02.441Z,102729.25
2022-11-26T09:01:33.151Z,102721.59
2022-11-26T09:04:02.844Z,102719.28
2022-11-26T09:06:32.888Z,102728.44
2022-11-26T09:09:13.815Z,102725.38
2022-11-26T09:11:45.892Z,102740.66
2022-11-26T09:14:14.272Z,102741.00
2022-11-26T09:16:41.482Z,102748.31
2022-11-26T09:19:10.730Z,102739.00
2022-11-26T09:21:37.877Z,102734.94
2022-11-26T09:24:05.502Z,102734.38
2022-11-26T09:26:34.189Z,102741.66
2022-11-26T09:29:01.468Z,102740.06
2022-11-26T09:31:28.559Z,102742.06
2022-11-26T09:33:58.517Z,102747.53
2022-11-26T09:36:26.390Z,102757.50
2022-11-26T09:38:58.080Z,102759.50
2022-11-26T09:41:57.184Z,102773.94
2022-11-26T09:45:20.366Z,102776.97
2022-11-26T09:47:52.406Z,102771.16
2022-11-26T09:50:33.211Z,102765.53
2022-11-26T09:53:13.055Z,102755.41
2022-11-26T09:55:44.040Z,102753.91
2022-11-26T09:58:29.398Z,102759.97
2022-11-26T10:01:00.308Z,102754.44
2022-11-26T10:03:31.693Z,102752.97
2022-11-26T10:06:18.149Z,102755.75
2022-11-26T10:09:13.064Z,102750.69
2022-11-26T10:11:49.239Z,102753.41
2022-11-26T10:15:08.830Z,102763.91
2022-11-26T10:17:50.381Z,102770.91
2022-11-26T10:21:05.567Z,102768.31
2022-11-26T10:24:25.235Z,102759.66
2022-11-26T10:26:53.504Z,102757.06
2022-11-26T10:29:56.742Z,102757.19
2022-11-26T10:32:33.107Z,102747.91
2022-11-26T10:35:00.225Z,102755.31
2022-11-26T10:37:29.124Z,102748.53
2022-11-26T10:40:24.782Z,102742.56
2022-11-26T10:43:19.026Z,102739.00
2022-11-26T10:45:55.798Z,102745.00
2022-11-26T10:48:31.094Z,102739.06
2022-11-26T10:51:30.340Z,102729.66
2022-11-26T10:54:04.355Z,102721.09
2022-11-26T10:56:47.429Z,102730.09
2022-11-26T10:59:30.011Z,102736.41
2022-11-26T11:02:15.463Z,102735.66
2022-11-26T11:04:46.452Z,102727.97
2022-11-26T11:07:37.107Z,102733.47
2022-11-26T11:10:13.326Z,102730.09
2022-11-26T11:12:42.719Z,102731.03
2022-11-26T11:15:30.663Z,102726.72
2022-11-26T11:18:06.379Z,102725.19
2022-11-26T11:20:38.158Z,102728.88
2022-11-26T11:23:10.885Z,102729.03
2022-11-26T11:25:46.216Z,102735.28
2022-11-26T11:28:13.136Z,102725.84
2022-11-26T11:30:41.655Z,102728.47
2022-11-26T11:33:18.013Z,102718.88
2022-11-26T11:35:45.138Z,102716.97
2022-11-26T11:38:25.263Z,102726.44
2022-11-26T11:40:53.226Z,102725.41
2022-11-26T11:43:23.728Z,102730.53
2022-11-26T11:46:07.103Z,102730.63
2022-11-26T11:49:14.971Z,102718.47
2022-11-26T11:52:02.336Z,102714.25
2022-11-26T11:55:16.144Z,102711.81
2022-11-26T11:58:25.827Z,102704.94
2022-11-26T12:01:11.699Z,102705.81
2022-11-26T12:04:20.072Z,102722.63
2022-11-26T12:07:22.166Z,102713.94
2022-11-26T12:10:25.491Z,102704.38
2022-11-26T12:12:57.901Z,102698.31
2022-11-26T12:15:52.842Z,102695.88
2022-11-26T12:18:55.887Z,102698.75
2022-11-26T12:21:39.408Z,102701.63
2022-11-26T12:24:32.042Z,102703.72
2022-11-26T12:27:22.492Z,102702.25
2022-11-26T12:30:08.732Z,102701.66
2022-11-26T12:33:11.692Z,102699.25
2022-11-26T12:35:55.077Z,102704.91
2022-11-26T12:38:42.047Z,102707.34
2022-11-26T12:41:23.307Z,102709.78
2022-11-26T12:44:10.723Z,102703.88
2022-11-26T12:47:06.481Z,102696.94
2022-11-26T12:50:35.070Z,102699.72
2022-11-26T12:54:01.711Z,102699.78
2022-11-26T12:56:37.331Z,102702.41
2022-11-26T12:59:22.271Z,102697.22
2022-11-26T13:01:49.568Z,102693.78
2022-11-26T13:04:37.183Z,102702.59
2022-11-26T13:07:23.767Z,102700.94
2022-11-26T13:10:34.935Z,102698.50
2022-11-26T13:13:45.454Z,102692.41
2022-11-26T13:16:39.297Z,102683.75
2022-11-26T13:19:38.504Z,102683.13
2022-11-26T13:22:37.278Z,102670.19
2022-11-26T13:25:31.553Z,102672.34
2022-11-26T13:28:01.058Z,102670.00
2022-11-26T13:30:47.535Z,102664.19
2022-11-26T13:33:37.124Z,102658.16
2022-11-26T13:36:47.718Z,102652.06
2022-11-26T13:39:59.400Z,102648.53
2022-11-26T13:43:00.234Z,102645.84
2022-11-26T13:45:39.199Z,102647.41
2022-11-26T13:48:24.320Z,102648.09
2022-11-26T13:51:05.092Z,102643.41
2022-11-26T13:53:42.835Z,102638.75
2022-11-26T13:56:12.192Z,102629.72
2022-11-26T13:58:54.282Z,102641.84
2022-11-26T14:01:40.148Z,102634.59
2022-11-26T14:04:32.662Z,102630.91
2022-11-26T14:07:05.547Z,102632.66
2022-11-26T14:09:44.536Z,102632.75
2022-11-26T14:12:13.351Z,102630.94
2022-11-26T14:14:49.099Z,102630.88
2022-11-26T14:17:31.089Z,102637.00
2022-11-26T14:20:02.400Z,102631.72
2022-11-26T14:22:34.478Z,102627.28
2022-11-26T14:25:09.838Z,102634.13
2022-11-26T14:27:52.145Z,102627.09
2022-11-26T14:30:26.124Z,102629.69
2022-11-26T14:33:16.293Z,102626.91
2022-11-26T14:35:56.092Z,102620.56
2022-11-26T14:38:28.909Z,102627.38
2022-11-26T14:41:00.990Z,102622.84
2022-11-26T14:43:29.535Z,102623.56
2022-11-26T14:46:17.704Z,102623.47
2022-11-26T14:48:48.206Z,102621.44
2022-11-26T14:51:26.446Z,102618.69
2022-11-26T14:53:55.374Z,102620.25
2022-11-26T14:56:25.221Z,102620.06
2022-11-26T14:58:57.437Z,102620.66
2022-11-26T15:01:29.353Z,102620.34
2022-11-26T15:04:02.959Z,102630.03
2022-11-26T15:06:38.090Z,102633.44
2022-11-26T15:09:27.230Z,102635.88
2022-11-26T15:12:15.846Z,102634.81
2022-11-26T15:14:59.045Z,102638.09
2022-11-26T15:17:29.677Z,102636.06
2022-11-26T15:20:02.754Z,102639.44
2022-11-26T15:22:39.724Z,102637.53
2022-11-26T15:25:20.361Z,102633.78
2022-11-26T15:28:18.315Z,102632.63
2022-11-26T15:31:04.381Z,102626.31
2022-11-26T15:33:34.234Z,102629.63
2022-11-26T15:36:03.061Z,102628.50
2022-11-26T15:38:34.029Z,102630.91
2022-11-26T15:41:06.098Z,102641.31
2022-11-26T15:43:49.123Z,102634.97
2022-11-26T15:46:20.565Z,102641.34
2022-11-26T15:48:54.042Z,102631.78
2022-11-26T15:51:43.957Z,102633.41
2022-11-26T15:54:56.667Z,102635.88
2022-11-26T15:57:30.219Z,102634.72
2022-11-26T16:00:02.093Z,102639.88
2022-11-26T16:02:31.250Z,102639.69
2022-11-26T16:05:03.578Z,102642.16
2022-11-26T16:07:33.170Z,102640.22
2022-11-26T16:10:25.184Z,102634.84
2022-11-26T16:13:10.845Z,102639.94
2022-11-26T16:16:17.619Z,102644.16
2022-11-26T16:18:56.626Z,102645.75
2022-11-26T16:21:29.772Z,102631.69
2022-11-26T16:24:28.494Z,102625.44
2022-11-26T16:27:26.844Z,102631.56
2022-11-26T16:29:53.933Z,102635.94
2022-11-26T16:32:21.253Z,102642.00
2022-11-26T16:35:23.281Z,102638.63
2022-11-26T16:37:54.434Z,102641.22
2022-11-26T16:40:22.544Z,102647.31
2022-11-26T16:42:50.302Z,102644.63
2022-11-26T16:45:18.381Z,102644.63
2022-11-26T16:47:53.514Z,102635.84
2022-11-26T16:50:24.777Z,102640.22
2022-11-26T16:52:53.870Z,102642.78
2022-11-26T16:55:25.479Z,102639.22
2022-11-26T16:58:01.277Z,102634.81
2022-11-26T17:00:28.364Z,102638.19
2022-11-26T17:02:55.645Z,102633.69
2022-11-26T17:05:24.621Z,102638.88
2022-11-26T17:08:02.419Z,102643.28
2022-11-26T17:10:30.369Z,102634.47
2022-11-26T17:12:58.132Z,102623.91
2022-11-26T17:15:25.424Z,102627.34
2022-11-26T17:18:00.992Z,102629.09
2022-11-26T17:20:28.096Z,102621.91
2022-11-26T17:22:55.942Z,102608.69
2022-11-26T17:25:23.484Z,102619.19
2022-11-26T17:27:52.000Z,102626.25
2022-11-26T17:30:23.504Z,102622.59
2022-11-26T17:32:51.581Z,102620.00
2022-11-26T17:35:19.577Z,102612.91
2022-11-26T17:37:47.084Z,102616.38
2022-11-26T17:40:20.901Z,102611.13
2022-11-26T17:42:48.334Z,102610.09
2022-11-26T17:45:16.303Z,102611.81
2022-11-26T17:47:44.171Z,102604.00
2022-11-26T17:50:27.793Z,102601.38
2022-11-26T17:52:55.204Z,102593.47
2022-11-26T17:55:26.390Z,102589.94
2022-11-26T17:57:55.196Z,102591.63
2022-11-26T18:00:28.352Z,102588.13
2022-11-26T18:02:56.417Z,102579.34
2022-11-26T18:05:24.022Z,102589.84
2022-11-26T18:07:59.496Z,102579.31
2022-11-26T18:10:26.599Z,102577.44
2022-11-26T18:12:54.835Z,102586.19
2022-11-26T18:15:25.157Z,102570.47
2022-11-26T18:17:55.237Z,102563.38
2022-11-26T18:20:26.458Z,102566.06
2022-11-26T18:22:59.900Z,102553.78
2022-11-26T18:25:28.872Z,102557.25
2022-11-26T18:27:56.717Z,102567.75
2022-11-26T18:30:29.934Z,102561.59
2022-11-26T18:33:01.914Z,102570.34
2022-11-26T18:35:28.953Z,102574.66
2022-11-26T18:37:56.241Z,102571.09
2022-11-26T18:40:23.322Z,102571.91
2022-11-26T18:42:53.446Z,102577.94
2022-11-26T18:45:20.506Z,102567.00
2022-11-26T18:47:47.948Z,102569.81
2022-11-26T18:50:17.612Z,102559.59
2022-11-26T18:52:44.938Z,102555.53
2022-11-26T18:55:15.175Z,102551.28
2022-11-26T18:57:42.268Z,102554.63
2022-11-26T19:00:11.016Z,102549.28
2022-11-26T19:02:38.287Z,102540.69
2022-11-26T19:05:06.231Z,102532.81
2022-11-26T19:07:33.755Z,102540.63
2022-11-26T19:10:01.093Z,102545.88
2022-11-26T19:12:28.358Z,102537.91
2022-11-26T19:14:55.456Z,102541.38
2022-11-26T19:17:22.798Z,102540.53
2022-11-26T19:19:50.035Z,102536.97
2022-11-26T19:22:17.220Z,102534.28
2022-11-26T19:24:44.288Z,102544.69
2022-11-26T19:27:12.795Z,102537.69
2022-11-26T19:29:40.540Z,102544.66
2022-11-26T19:32:07.900Z,102540.25
2022-11-26T19:34:35.049Z,102541.88
2022-11-26T19:37:02.203Z,102543.66
2022-11-26T19:39:29.398Z,102547.75
2022-11-26T19:41:56.560Z,102550.38
2022-11-26T19:44:23.771Z,102558.16
2022-11-26T19:46:50.883Z,102567.75
2022-11-26T19:49:18.003Z,102561.63
2022-11-26T19:51:45.451Z,102552.72
2022-11-26T19:54:12.690Z,102553.50
2022-11-26T19:56:39.901Z,102552.59
2022-11-26T19:59:06.958Z,102543.03
2022-11-26T20:01:35.229Z,102550.00
2022-11-26T20:04:07.178Z,102555.19
2022-11-26T20:06:35.500Z,102571.84
2022-11-26T20:09:05.672Z,102570.13
2022-11-26T20:11:35.720Z,102584.06
2022-11-26T20:14:03.382Z,102591.06
2022-11-26T20:16:32.347Z,102590.19
2022-11-26T20:19:01.398Z,102599.88
2022-11-26T20:21:34.149Z,102607.81
2022-11-26T20:24:12.649Z,102609.53
2022-11-26T20:26:47.482Z,102603.44
2022-11-26T20:29:17.023Z,102604.34
2022-11-26T20:31:50.616Z,102592.91
2022-11-26T20:34:23.873Z,102601.72
2022-11-26T20:36:51.084Z,102598.31
2022-11-26T20:39:21.352Z,102582.56
2022-11-26T20:41:49.711Z,102590.53
2022-11-26T20:44:16.866Z,102586.97
2022-11-26T20:46:44.036Z,102582.66
2022-11-26T20:49:11.735Z,102592.56
2022-11-26T20:51:39.279Z,102592.69
2022-11-26T20:54:06.474Z,102588.63
2022-11-26T20:56:34.418Z,102587.91
2022-11-26T20:59:01.824Z,102587.91
2022-11-26T21:01:30.133Z,102594.94
2022-11-26T21:03:58.612Z,102586.28
2022-11-26T21:06:30.659Z,102587.19
2022-11-26T21:09:01.540Z,102581.09
2022-11-26T21:11:30.056Z,102571.50
2022-11-26T21:13:59.682Z,102571.50
2022-11-26T21:16:27.465Z,102567.94
2022-11-26T21:18:55.416Z,102566.16
2022-11-26T21:21:24.425Z,102557.25
2022-11-26T21:23:52.123Z,102548.41
2022-11-26T21:26:23.271Z,102544.25
2022-11-26T21:28:56.636Z,102530.56
2022-11-26T21:31:25.562Z,102524.38
2022-11-26T21:34:11.582Z,102515.56
2022-11-26T21:36:38.627Z,102507.56
2022-11-26T21:39:06.470Z,102503.06
2022-11-26T21:41:33.953Z,102500.34
2022-11-26T21:44:04.468Z,102494.91
2022-11-26T21:46:37.957Z,102490.44
2022-11-26T21:49:06.426Z,102485.13
2022-11-26T21:51:33.470Z,102483.28
2022-11-26T21:54:00.708Z,102480.41
2022-11-26T21:56:30.984Z,102482.13
2022-11-26T21:59:00.204Z,102475.16
2022-11-26T22:01:31.462Z,102476.09
2022-11-26T22:04:02.452Z,102468.03
2022-11-26T22:06:30.184Z,102461.91
2022-11-26T22:08:57.851Z,102459.25
2022-11-26T22:11:29.034Z,102457.50
2022-11-26T22:13:56.639Z,102457.38
2022-11-26T22:16:26.832Z,102453.94
2022-11-26T22:18:56.122Z,102452.13
2022-11-26T22:21:33.084Z,102432.91
2022-11-26T22:24:02.528Z,102423.28
2022-11-26T22:26:30.914Z,102418.03
2022-11-26T22:28:58.933Z,102407.50
2022-11-26T22:31:36.347Z,102389.13
2022-11-26T22:34:26.612Z,102393.53
2022-11-26T22:36:54.010Z,102402.28
2022-11-26T22:39:21.165Z,102390.03
2022-11-26T22:41:49.144Z,102396.16
2022-11-26T22:44:17.012Z,102405.72
2022-11-26T22:46:45.225Z,102395.31
2022-11-26T22:49:15.794Z,102388.41
2022-11-26T22:51:42.941Z,102382.28
2022-11-26T22:54:13.510Z,102388.03
2022-11-26T22:56:40.881Z,102381.22
2022-11-26T22:59:11.813Z,102383.91
2022-11-26T23:01:38.952Z,102383.06
2022-11-26T23:04:08.819Z,102377.75
2022-11-26T23:06:37.519Z,102379.59
2022-11-26T23:09:07.934Z,102381.31
2022-11-26T23:11:41.827Z,102376.94
2022-11-26T23:14:11.865Z,102374.25
2022-11-26T23:16:42.194Z,102382.13
2022-11-26T23:19:09.973Z,102388.09
2022-11-26T23:21:40.182Z,102389.81
2022-11-26T23:24:08.013Z,102381.09
2022-11-26T23:26:38.251Z,102374.91
2022-11-26T23:29:06.856Z,102380.97
2022-11-26T23:31:39.759Z,102379.19
2022-11-26T23:34:08.167Z,102380.78
2022-11-26T23:36:36.676Z,102378.09
2022-11-26T23:39:06.912Z,102373.72
2022-11-26T23:41:34.082Z,102370.97
2022-11-26T23:44:01.047Z,102372.56
2022-11-26T23:46:31.685Z,102368.00
2022-11-26T23:48:59.249Z,102371.31
2022-11-26T23:51:31.946Z,102372.16
2022-11-26T23:53:59.242Z,102379.06
2022-11-26T23:56:31.978Z,102369.28
2022-11-26T23:59:02.951Z,102370.00
